createdAt,value
2018-07-21T00:00:57.638Z,19.90
2018-07-21T00:03:55.305Z,19.90
2018-07-21T00:06:53.225Z,19.80
2018-07-21T00:09:50.415Z,19.63
2018-07-21T00:12:48.678Z,19.67
2018-07-21T00:15:46.921Z,19.81
2018-07-21T00:18:45.002Z,19.68
2018-07-21T00:21:43.067Z,19.61
2018-07-21T00:24:41.088Z,19.45
2018-07-21T00:27:39.103Z,19.43
2018-07-21T00:30:37.289Z,19.42
2018-07-21T00:33:35.333Z,19.51
2018-07-21T00:36:33.376Z,19.60
2018-07-21T00:39:32.438Z,19.92
2018-07-21T00:42:30.182Z,19.99
2018-07-21T00:45:28.161Z,19.97
2018-07-21T00:48:26.062Z,19.87
2018-07-21T00:51:24.041Z,19.77
2018-07-21T00:54:21.769Z,19.93
2018-07-21T00:57:20.068Z,19.96
2018-07-21T01:00:18.054Z,20.01
2018-07-21T01:03:16.111Z,20.08
2018-07-21T01:06:14.242Z,20.13
2018-07-21T01:09:12.069Z,20.24
2018-07-21T01:12:10.032Z,20.35
2018-07-21T01:15:07.963Z,20.30
2018-07-21T01:18:05.990Z,20.20
2018-07-21T01:21:03.968Z,20.25
2018-07-21T01:24:02.046Z,20.20
2018-07-21T01:27:00.069Z,20.13
2018-07-21T01:29:57.979Z,19.98
2018-07-21T01:32:56.070Z,19.88
2018-07-21T01:35:53.943Z,19.74
2018-07-21T01:38:51.887Z,19.52
2018-07-21T01:41:50.019Z,19.60
2018-07-21T01:44:48.010Z,19.54
2018-07-21T01:47:45.937Z,19.28
2018-07-21T01:50:43.827Z,18.97
2018-07-21T01:53:41.982Z,18.80
2018-07-21T01:56:40.080Z,18.79
2018-07-21T01:59:38.042Z,18.71
2018-07-21T02:02:35.786Z,18.62
2018-07-21T02:05:33.883Z,18.36
2018-07-21T02:08:31.874Z,18.12
2018-07-21T02:11:29.938Z,18.30
2018-07-21T02:14:28.139Z,18.30
2018-07-21T02:17:26.198Z,18.34
2018-07-21T02:20:24.367Z,18.52
2018-07-21T02:23:22.282Z,18.26
2018-07-21T02:26:20.478Z,18.25
2018-07-21T02:29:18.439Z,18.19
2018-07-21T02:32:16.684Z,18.23
2018-07-21T02:35:14.715Z,18.39
2018-07-21T02:38:12.833Z,18.49
2018-07-21T02:41:10.756Z,18.67
2018-07-21T02:44:08.863Z,18.71
2018-07-21T02:47:06.846Z,18.66
2018-07-21T02:50:04.699Z,18.75
2018-07-21T02:53:02.712Z,18.79
2018-07-21T02:56:00.655Z,18.79
2018-07-21T02:58:58.439Z,18.65
2018-07-21T03:01:56.142Z,18.61
2018-07-21T03:04:54.084Z,18.58
2018-07-21T03:07:52.027Z,18.52
2018-07-21T03:10:49.831Z,18.49
2018-07-21T03:13:47.620Z,18.50
2018-07-21T03:16:45.413Z,18.57
2018-07-21T03:19:43.230Z,18.61
2018-07-21T03:22:40.768Z,18.51
2018-07-21T03:25:38.888Z,18.49
2018-07-21T03:28:36.718Z,18.49
2018-07-21T03:31:34.842Z,18.61
2018-07-21T03:34:32.111Z,18.73
2018-07-21T03:37:29.981Z,18.81
2018-07-21T03:40:28.160Z,18.56
2018-07-21T03:43:26.206Z,18.35
2018-07-21T03:46:24.246Z,18.29
2018-07-21T03:49:22.394Z,18.48
2018-07-21T03:52:20.361Z,18.51
2018-07-21T03:55:18.198Z,18.49
2018-07-21T03:58:16.016Z,18.34
2018-07-21T04:01:14.050Z,18.34
2018-07-21T04:04:11.778Z,18.34
2018-07-21T04:07:09.607Z,18.41
2018-07-21T04:10:07.531Z,18.39
2018-07-21T04:13:05.405Z,18.45
2018-07-21T04:16:03.365Z,18.60
2018-07-21T04:19:01.157Z,18.75
2018-07-21T04:21:59.425Z,18.87
2018-07-21T04:24:57.224Z,18.87
2018-07-21T04:27:55.187Z,18.68
2018-07-21T04:30:53.375Z,18.62
2018-07-21T04:33:51.373Z,18.67
2018-07-21T04:36:49.225Z,18.77
2018-07-21T04:39:47.218Z,18.82
2018-07-21T04:42:45.209Z,18.98
2018-07-21T04:45:43.175Z,18.95
2018-07-21T04:48:41.030Z,19.00
2018-07-21T04:51:38.999Z,19.10
2018-07-21T04:54:37.186Z,19.22
2018-07-21T04:57:35.128Z,19.28
2018-07-21T05:00:33.254Z,19.34
2018-07-21T05:03:31.296Z,19.33
2018-07-21T05:06:29.287Z,19.32
2018-07-21T05:09:29.118Z,19.24
2018-07-21T05:12:27.078Z,19.34
2018-07-21T05:15:24.983Z,19.51
2018-07-21T05:18:23.113Z,19.56
2018-07-21T05:21:20.207Z,19.64
2018-07-21T05:24:18.145Z,19.72
2018-07-21T05:27:16.016Z,19.75
2018-07-21T05:30:13.966Z,19.67
2018-07-21T05:33:12.069Z,19.47
2018-07-21T05:36:09.929Z,19.56
2018-07-21T05:39:07.906Z,19.59
2018-07-21T05:42:05.776Z,19.38
2018-07-21T05:45:03.926Z,19.30
2018-07-21T05:48:01.829Z,19.45
2018-07-21T05:50:59.802Z,19.38
2018-07-21T05:53:57.714Z,19.35
2018-07-21T05:56:55.950Z,19.21
2018-07-21T05:59:54.215Z,19.18
2018-07-21T06:02:52.606Z,19.32
2018-07-21T06:05:50.514Z,19.61
2018-07-21T06:08:48.664Z,19.69
2018-07-21T06:11:46.845Z,19.79
2018-07-21T06:14:44.694Z,19.84
2018-07-21T06:17:42.621Z,19.68
2018-07-21T06:20:40.680Z,19.69
2018-07-21T06:23:38.633Z,19.64
2018-07-21T06:26:36.521Z,19.84
2018-07-21T06:29:34.682Z,20.08
2018-07-21T06:32:32.672Z,20.35
2018-07-21T06:35:30.532Z,20.60
2018-07-21T06:38:28.451Z,20.94
2018-07-21T06:41:26.431Z,21.13
2018-07-21T06:44:24.377Z,21.23
2018-07-21T06:47:22.354Z,21.34
2018-07-21T06:50:20.202Z,21.26
2018-07-21T06:53:18.154Z,21.45
2018-07-21T06:56:16.131Z,21.52
2018-07-21T06:59:14.089Z,21.31
2018-07-21T07:02:11.889Z,21.31
2018-07-21T07:05:09.865Z,21.44
2018-07-21T07:08:07.955Z,21.57
2018-07-21T07:11:05.943Z,21.48
2018-07-21T07:14:03.888Z,21.32
2018-07-21T07:17:02.008Z,20.97
2018-07-21T07:20:00.029Z,20.88
2018-07-21T07:22:58.251Z,20.93
2018-07-21T07:25:56.383Z,21.12
2018-07-21T07:28:54.425Z,21.19
2018-07-21T07:31:52.444Z,21.28
2018-07-21T07:34:50.240Z,21.60
2018-07-21T07:37:48.449Z,21.56
2018-07-21T07:40:46.588Z,21.52
2018-07-21T07:43:44.374Z,21.62
2018-07-21T07:46:43.390Z,21.66
2018-07-21T07:49:41.412Z,21.76
2018-07-21T07:52:39.434Z,21.75
2018-07-21T07:55:39.368Z,21.60
2018-07-21T07:58:37.467Z,21.57
2018-07-21T08:01:36.419Z,21.43
2018-07-21T08:04:34.385Z,21.44
2018-07-21T08:07:32.350Z,21.41
2018-07-21T08:10:30.170Z,21.48
2018-07-21T08:13:28.282Z,21.70
2018-07-21T08:16:26.374Z,21.78
2018-07-21T08:19:24.160Z,21.72
2018-07-21T08:22:22.136Z,21.70
2018-07-21T08:25:20.007Z,21.79
2018-07-21T08:28:18.152Z,21.62
2018-07-21T08:31:16.372Z,21.69
2018-07-21T08:34:14.498Z,21.64
2018-07-21T08:37:12.494Z,21.64
2018-07-21T08:40:10.698Z,21.65
2018-07-21T08:43:08.709Z,21.71
2018-07-21T08:46:06.663Z,21.95
2018-07-21T08:49:04.657Z,22.07
2018-07-21T08:52:02.747Z,22.07
2018-07-21T08:55:00.799Z,22.10
2018-07-21T08:57:58.724Z,22.14
2018-07-21T09:00:56.625Z,22.59
2018-07-21T09:03:54.459Z,22.78
2018-07-21T09:06:52.374Z,22.87
2018-07-21T09:09:50.350Z,23.03
2018-07-21T09:12:48.289Z,22.99
2018-07-21T09:15:46.055Z,23.14
2018-07-21T09:18:44.103Z,23.24
2018-07-21T09:21:42.217Z,23.28
2018-07-21T09:24:40.161Z,23.32
2018-07-21T09:27:38.159Z,23.55
2018-07-21T09:30:36.150Z,23.82
2018-07-21T09:33:34.151Z,24.04
2018-07-21T09:36:32.083Z,24.10
2018-07-21T09:39:29.880Z,24.21
2018-07-21T09:42:27.734Z,24.36
2018-07-21T09:45:24.990Z,24.49
2018-07-21T09:48:22.968Z,24.94
2018-07-21T09:51:21.130Z,25.05
2018-07-21T09:54:19.316Z,25.16
2018-07-21T09:57:17.446Z,25.11
2018-07-21T10:00:15.592Z,25.12
2018-07-21T10:03:13.721Z,25.10
2018-07-21T10:06:11.630Z,24.92
2018-07-21T10:09:09.506Z,25.04
2018-07-21T10:12:07.443Z,25.65
2018-07-21T10:15:05.647Z,25.75
2018-07-21T10:18:03.593Z,25.83
2018-07-21T10:21:01.578Z,26.08
2018-07-21T10:23:59.768Z,25.75
2018-07-21T10:27:03.759Z,25.82
2018-07-21T10:30:01.392Z,25.32
2018-07-21T10:32:59.411Z,25.47
2018-07-21T10:35:57.698Z,25.44
2018-07-21T10:38:55.438Z,25.70
2018-07-21T10:41:53.488Z,25.90
2018-07-21T10:44:51.807Z,26.25
2018-07-21T10:47:49.722Z,25.97
2018-07-21T10:50:47.612Z,26.28
2018-07-21T10:53:45.340Z,26.15
2018-07-21T10:56:43.370Z,26.37
2018-07-21T10:59:41.447Z,26.07
2018-07-21T11:02:39.729Z,26.44
2018-07-21T11:05:37.816Z,26.26
2018-07-21T11:08:36.815Z,26.11
2018-07-21T11:11:34.739Z,26.14
2018-07-21T11:14:32.883Z,26.46
2018-07-21T11:17:30.750Z,27.16
2018-07-21T11:20:28.601Z,27.55
2018-07-21T11:23:26.754Z,27.30
2018-07-21T11:26:24.642Z,27.05
2018-07-21T11:29:22.647Z,26.87
2018-07-21T11:32:20.789Z,27.11
2018-07-21T11:35:18.791Z,26.76
2018-07-21T11:38:16.936Z,26.75
2018-07-21T11:41:15.052Z,26.36
2018-07-21T11:44:12.970Z,26.29
2018-07-21T11:47:10.922Z,26.19
2018-07-21T11:50:08.944Z,25.92
2018-07-21T11:53:06.891Z,25.71
2018-07-21T11:56:04.630Z,25.43
2018-07-21T11:59:02.509Z,25.32
2018-07-21T12:02:00.590Z,25.21
2018-07-21T12:04:57.987Z,25.01
2018-07-21T12:07:56.080Z,25.07
2018-07-21T12:10:54.115Z,24.99
2018-07-21T12:13:51.912Z,24.85
2018-07-21T12:16:49.935Z,24.73
2018-07-21T12:19:47.827Z,24.78
2018-07-21T12:22:45.684Z,24.87
2018-07-21T12:25:43.563Z,24.73
2018-07-21T12:28:41.779Z,24.76
2018-07-21T12:31:39.849Z,25.01
2018-07-21T12:34:37.994Z,25.17
2018-07-21T12:37:36.015Z,25.56
2018-07-21T12:40:34.450Z,25.78
2018-07-21T12:43:32.511Z,26.29
2018-07-21T12:46:30.363Z,27.27
2018-07-21T12:49:28.391Z,27.49
2018-07-21T12:52:26.478Z,27.65
2018-07-21T12:55:24.468Z,27.38
2018-07-21T12:58:22.486Z,27.01
2018-07-21T13:01:20.277Z,27.22
2018-07-21T13:04:18.164Z,27.04
2018-07-21T13:07:16.150Z,27.31
2018-07-21T13:10:14.100Z,27.21
2018-07-21T13:13:12.138Z,27.75
2018-07-21T13:16:10.060Z,27.81
2018-07-21T13:19:07.952Z,28.13
2018-07-21T13:22:05.895Z,28.08
2018-07-21T13:25:04.807Z,27.83
2018-07-21T13:28:03.078Z,28.02
2018-07-21T13:31:01.162Z,27.47
2018-07-21T13:33:59.015Z,27.63
2018-07-21T13:36:56.922Z,27.92
2018-07-21T13:39:54.844Z,28.62
2018-07-21T13:43:01.250Z,28.67
2018-07-21T13:45:59.150Z,28.85
2018-07-21T13:48:57.072Z,28.54
2018-07-21T13:51:54.955Z,28.28
2018-07-21T13:54:52.896Z,28.41
2018-07-21T13:57:50.774Z,28.46
2018-07-21T14:00:48.784Z,28.67
2018-07-21T14:03:46.590Z,28.11
2018-07-21T14:06:44.506Z,28.15
2018-07-21T14:09:42.170Z,27.68
2018-07-21T14:12:39.873Z,27.58
2018-07-21T14:15:37.698Z,27.68
2018-07-21T14:18:35.789Z,27.99
2018-07-21T14:21:33.985Z,28.01
2018-07-21T14:24:31.987Z,27.97
2018-07-21T14:27:29.902Z,28.09
2018-07-21T14:30:28.716Z,27.94
2018-07-21T14:33:26.590Z,27.99
2018-07-21T14:36:24.784Z,28.00
2018-07-21T14:39:22.492Z,28.04
2018-07-21T14:42:20.567Z,28.11
2018-07-21T14:45:18.479Z,28.39
2018-07-21T14:48:16.336Z,28.39
2018-07-21T14:51:14.333Z,28.35
2018-07-21T14:54:12.251Z,28.23
2018-07-21T14:57:10.075Z,28.06
2018-07-21T15:00:08.250Z,27.91
2018-07-21T15:03:06.251Z,27.94
2018-07-21T15:06:04.345Z,27.75
2018-07-21T15:09:02.122Z,27.77
2018-07-21T15:12:00.064Z,27.83
2018-07-21T15:14:58.012Z,27.56
2018-07-21T15:17:55.821Z,27.50
2018-07-21T15:20:53.757Z,27.23
2018-07-21T15:23:51.767Z,27.09
2018-07-21T15:26:50.002Z,27.00
2018-07-21T15:29:47.626Z,26.86
2018-07-21T15:32:45.643Z,26.81
2018-07-21T15:35:43.690Z,26.66
2018-07-21T15:38:41.657Z,26.51
2018-07-21T15:41:39.739Z,26.30
2018-07-21T15:44:37.662Z,26.19
2018-07-21T15:47:35.666Z,26.02
2018-07-21T15:50:33.454Z,25.96
2018-07-21T15:53:31.466Z,26.09
2018-07-21T15:56:29.672Z,26.01
2018-07-21T15:59:27.538Z,25.93
2018-07-21T16:02:25.536Z,25.81
2018-07-21T16:05:23.482Z,25.69
2018-07-21T16:08:21.209Z,25.97
2018-07-21T16:11:19.035Z,26.02
2018-07-21T16:14:16.866Z,25.95
2018-07-21T16:17:14.758Z,26.02
2018-07-21T16:20:12.858Z,25.88
2018-07-21T16:23:10.799Z,25.82
2018-07-21T16:26:08.793Z,25.87
2018-07-21T16:29:06.778Z,25.86
2018-07-21T16:32:04.761Z,25.82
2018-07-21T16:35:02.497Z,25.87
2018-07-21T16:38:00.295Z,25.75
2018-07-21T16:40:58.326Z,25.75
2018-07-21T16:43:56.353Z,25.72
2018-07-21T16:46:54.230Z,25.73
2018-07-21T16:49:52.225Z,25.65
2018-07-21T16:52:50.362Z,25.38
2018-07-21T16:55:48.274Z,25.27
2018-07-21T16:58:46.214Z,25.16
2018-07-21T17:01:44.360Z,25.16
2018-07-21T17:04:42.543Z,25.14
2018-07-21T17:07:40.321Z,25.07
2018-07-21T17:10:38.394Z,25.08
2018-07-21T17:13:36.282Z,24.91
2018-07-21T17:16:33.924Z,24.83
2018-07-21T17:19:31.706Z,24.77
2018-07-21T17:22:29.457Z,24.50
2018-07-21T17:25:27.474Z,24.43
2018-07-21T17:28:25.167Z,24.30
2018-07-21T17:31:23.286Z,24.17
2018-07-21T17:34:20.978Z,24.24
2018-07-21T17:37:19.134Z,24.14
2018-07-21T17:40:16.593Z,24.20
2018-07-21T17:43:14.386Z,24.31
2018-07-21T17:46:12.489Z,24.03
2018-07-21T17:49:10.210Z,23.98
2018-07-21T17:52:08.024Z,23.93
2018-07-21T17:55:06.168Z,23.99
2018-07-21T17:58:04.062Z,24.12
2018-07-21T18:01:02.147Z,24.10
2018-07-21T18:03:59.999Z,24.19
2018-07-21T18:06:58.089Z,24.29
2018-07-21T18:09:56.084Z,24.39
2018-07-21T18:12:54.126Z,24.46
2018-07-21T18:15:51.870Z,24.56
2018-07-21T18:18:49.873Z,24.63
2018-07-21T18:21:47.730Z,24.56
2018-07-21T18:24:45.600Z,24.50
2018-07-21T18:27:43.392Z,24.55
2018-07-21T18:30:41.268Z,24.60
2018-07-21T18:33:39.115Z,24.56
2018-07-21T18:36:36.986Z,24.41
2018-07-21T18:39:34.706Z,24.34
2018-07-21T18:42:32.428Z,24.30
2018-07-21T18:45:30.497Z,24.26
2018-07-21T18:48:28.354Z,24.32
2018-07-21T18:51:26.137Z,24.28
2018-07-21T18:54:23.890Z,24.17
2018-07-21T18:57:22.040Z,24.04
2018-07-21T19:00:20.062Z,23.97
2018-07-21T19:03:17.578Z,23.88
2018-07-21T19:06:15.562Z,23.76
2018-07-21T19:09:13.485Z,23.58
2018-07-21T19:12:17.467Z,23.47
2018-07-21T19:15:15.454Z,23.48
2018-07-21T19:18:13.583Z,23.55
2018-07-21T19:21:17.602Z,23.42
2018-07-21T19:24:15.490Z,23.31
2018-07-21T19:27:19.167Z,23.23
2018-07-21T19:30:17.260Z,23.22
2018-07-21T19:33:15.029Z,23.19
2018-07-21T19:36:12.897Z,23.15
2018-07-21T19:39:10.517Z,23.06
2018-07-21T19:42:12.634Z,22.99
2018-07-21T19:45:10.140Z,22.92
2018-07-21T19:48:08.378Z,22.83
2018-07-21T19:51:06.068Z,22.62
2018-07-21T19:54:03.704Z,22.43
2018-07-21T19:57:01.671Z,22.16
2018-07-21T19:59:59.403Z,22.01
2018-07-21T20:02:57.389Z,21.89
2018-07-21T20:05:55.314Z,21.67
2018-07-21T20:08:53.198Z,21.58
2018-07-21T20:11:51.001Z,21.64
2018-07-21T20:14:48.999Z,21.73
2018-07-21T20:17:46.787Z,21.66
2018-07-21T20:20:44.769Z,21.67
2018-07-21T20:23:42.957Z,21.76
2018-07-21T20:26:40.952Z,21.72
2018-07-21T20:29:39.115Z,21.59
2018-07-21T20:32:36.863Z,21.56
2018-07-21T20:35:34.955Z,21.63
2018-07-21T20:38:32.813Z,21.45
2018-07-21T20:41:30.654Z,21.31
2018-07-21T20:44:28.637Z,21.28
2018-07-21T20:47:26.663Z,21.34
2018-07-21T20:50:24.591Z,21.34
2018-07-21T20:53:22.705Z,21.35
2018-07-21T20:56:20.534Z,21.35
2018-07-21T20:59:18.282Z,21.34
2018-07-21T21:02:16.006Z,21.38
2018-07-21T21:05:13.935Z,21.37
2018-07-21T21:08:11.594Z,21.22
2018-07-21T21:11:09.774Z,20.99
2018-07-21T21:14:07.836Z,20.89
2018-07-21T21:17:05.635Z,20.89
2018-07-21T21:20:03.278Z,20.95
2018-07-21T21:23:01.278Z,20.90
2018-07-21T21:25:59.101Z,20.82
2018-07-21T21:28:57.113Z,20.69
2018-07-21T21:31:55.149Z,20.61
2018-07-21T21:34:52.922Z,20.55
2018-07-21T21:37:50.874Z,20.49
2018-07-21T21:40:48.769Z,20.60
2018-07-21T21:43:46.744Z,20.53
2018-07-21T21:46:44.813Z,20.57
2018-07-21T21:49:42.536Z,20.55
2018-07-21T21:52:40.224Z,20.26
2018-07-21T21:55:38.102Z,20.05
2018-07-21T21:58:36.272Z,20.11
2018-07-21T22:01:34.228Z,20.35
2018-07-21T22:04:31.701Z,20.34
2018-07-21T22:07:28.747Z,20.60
2018-07-21T22:10:26.530Z,20.52
2018-07-21T22:13:24.669Z,20.49
2018-07-21T22:16:22.357Z,20.49
2018-07-21T22:19:20.136Z,20.45
2018-07-21T22:22:17.918Z,20.43
2018-07-21T22:25:15.951Z,20.36
2018-07-21T22:28:14.830Z,20.39
2018-07-21T22:31:13.000Z,20.33
2018-07-21T22:34:11.080Z,20.39
2018-07-21T22:37:09.186Z,20.45
2018-07-21T22:40:07.291Z,20.41
2018-07-21T22:43:05.254Z,20.45
2018-07-21T22:46:03.183Z,20.44
2018-07-21T22:49:01.109Z,20.27
2018-07-21T22:51:59.102Z,20.01
2018-07-21T22:54:57.114Z,19.99
2018-07-21T22:57:55.392Z,19.93
2018-07-21T23:00:53.580Z,19.72
2018-07-21T23:03:51.395Z,19.56
2018-07-21T23:06:49.358Z,19.49
2018-07-21T23:09:47.090Z,19.44
2018-07-21T23:12:45.095Z,19.47
2018-07-21T23:15:42.359Z,19.54
2018-07-21T23:18:40.530Z,19.61
2018-07-21T23:21:38.566Z,19.79
2018-07-21T23:24:36.589Z,19.98
2018-07-21T23:27:34.557Z,20.00
2018-07-21T23:30:32.674Z,20.06
2018-07-21T23:33:30.840Z,19.95
2018-07-21T23:36:28.746Z,19.67
2018-07-21T23:39:28.663Z,19.46
2018-07-21T23:42:26.609Z,19.50
2018-07-21T23:45:24.346Z,19.51
2018-07-21T23:48:22.292Z,19.58
2018-07-21T23:51:20.185Z,19.67
2018-07-21T23:54:18.114Z,19.60
2018-07-21T23:57:16.062Z,19.50
